Time;durP1;ratioP1;P1;durP2;ratioP2;P2;SDS_P1;SDS_P2;PMS_P1;PMS_P2;Temp;Humidity;BMP_temperature;BMP_pressure;BME280_temperature;BME280_humidity;BME280_pressure;Samples;Min_cycle;Max_cycle;Signal;HPM_P1;HPM_P2
2023/04/10 00:00:10;;;;;;;12.75;8.85;;;;;;;;;;4951048;29;20056;-78
2023/04/10 00:02:37;;;;;;;8.27;7.05;;;;;;;;;;4953164;28;20067;-78
2023/04/10 00:05:06;;;;;;;9.30;8.13;;;;;;;;;;4950203;29;20106;-78
2023/04/10 00:07:33;;;;;;;9.20;8.25;;;;;;;;;;4950060;28;20047;-78
2023/04/10 00:10:01;;;;;;;10.65;8.00;;;;;;;;;;4950609;29;20493;-78
2023/04/10 00:12:28;;;;;;;8.82;7.47;;;;;;;;;;4950894;29;20043;-78
2023/04/10 00:14:58;;;;;;;11.23;8.50;;;;;;;;;;4948044;29;20048;-79
2023/04/10 00:17:26;;;;;;;10.73;8.07;;;;;;;;;;4950456;29;20111;-78
2023/04/10 00:19:53;;;;;;;9.30;7.63;;;;;;;;;;4950015;28;20047;-78
2023/04/10 00:22:20;;;;;;;10.43;8.65;;;;;;;;;;4949725;29;20070;-78
2023/04/10 00:24:48;;;;;;;9.30;7.85;;;;;;;;;;4950037;28;20047;-78
2023/04/10 00:27:15;;;;;;;11.05;8.43;;;;;;;;;;4948177;28;20054;-78
2023/04/10 00:29:42;;;;;;;9.38;8.30;;;;;;;;;;4949666;28;20502;-78
2023/04/10 00:32:10;;;;;;;9.50;8.02;;;;;;;;;;4932961;28;20470;-78
2023/04/10 00:34:37;;;;;;;11.52;7.93;;;;;;;;;;4949621;28;20047;-78
2023/04/10 00:37:05;;;;;;;11.63;8.95;;;;;;;;;;4951298;28;20429;-78
2023/04/10 00:39:32;;;;;;;15.75;9.65;;;;;;;;;;4949664;28;20058;-78
2023/04/10 00:42:01;;;;;;;13.02;8.93;;;;;;;;;;4949995;29;20047;-78
2023/04/10 00:44:28;;;;;;;10.25;8.02;;;;;;;;;;4948383;28;20421;-78
2023/04/10 00:46:56;;;;;;;10.88;8.20;;;;;;;;;;4949676;29;20407;-78
2023/04/10 00:49:23;;;;;;;9.90;8.55;;;;;;;;;;4927110;29;20095;-78
2023/04/10 00:51:52;;;;;;;9.80;8.20;;;;;;;;;;4932614;28;20070;-78
2023/04/10 00:54:19;;;;;;;9.80;7.50;;;;;;;;;;4950183;28;20509;-78
2023/04/10 00:56:47;;;;;;;12.20;8.63;;;;;;;;;;4949215;29;20575;-78
2023/04/10 00:59:14;;;;;;;11.85;8.40;;;;;;;;;;4950251;28;20047;-78
2023/04/10 01:01:42;;;;;;;10.10;8.45;;;;;;;;;;4932817;29;20043;-78
2023/04/10 01:04:10;;;;;;;9.60;7.88;;;;;;;;;;4948546;28;20044;-78
2023/04/10 01:06:38;;;;;;;10.48;7.97;;;;;;;;;;4949637;29;20047;-78
2023/04/10 01:09:08;;;;;;;9.25;7.93;;;;;;;;;;4950529;28;20055;-78
2023/04/10 01:11:47;;;;;;;11.02;8.70;;;;;;;;;;4932552;29;20055;-78
2023/04/10 01:14:16;;;;;;;8.93;7.65;;;;;;;;;;4949677;28;20126;-78
2023/04/10 01:16:48;;;;;;;10.90;8.43;;;;;;;;;;4945248;29;20075;-78
2023/04/10 01:19:32;;;;;;;9.80;8.10;;;;;;;;;;4943426;28;20061;-78
2023/04/10 01:22:03;;;;;;;9.73;8.02;;;;;;;;;;4949158;29;20053;-79
2023/04/10 01:24:40;;;;;;;10.97;8.50;;;;;;;;;;4929542;29;20476;-79
2023/04/10 01:27:24;;;;;;;9.15;7.78;;;;;;;;;;4930639;29;20836;-78
2023/04/10 01:29:55;;;;;;;10.52;7.85;;;;;;;;;;4929631;29;20055;-79
2023/04/10 01:32:23;;;;;;;10.35;8.18;;;;;;;;;;4930563;29;20072;-77
2023/04/10 01:34:52;;;;;;;11.35;8.27;;;;;;;;;;4948978;28;20059;-78
2023/04/10 01:37:21;;;;;;;10.50;9.00;;;;;;;;;;4928170;29;20055;-78
2023/04/10 01:39:56;;;;;;;11.13;8.55;;;;;;;;;;4930016;29;20055;-78
2023/04/10 01:42:25;;;;;;;11.20;7.85;;;;;;;;;;4949260;29;20074;-78
2023/04/10 01:44:53;;;;;;;11.10;8.13;;;;;;;;;;4946056;28;20113;-78
2023/04/10 01:47:21;;;;;;;9.77;7.88;;;;;;;;;;4938875;29;20047;-78
2023/04/10 01:49:49;;;;;;;9.80;7.63;;;;;;;;;;4929918;29;20108;-78
2023/04/10 01:52:17;;;;;;;12.35;7.70;;;;;;;;;;4930523;29;20050;-77
2023/04/10 01:54:50;;;;;;;10.05;7.85;;;;;;;;;;4935888;29;20043;-77
2023/04/10 01:57:24;;;;;;;11.15;8.73;;;;;;;;;;4930906;29;20058;-77
2023/04/10 01:59:57;;;;;;;9.75;8.10;;;;;;;;;;4935727;29;20098;-78
2023/04/10 02:02:25;;;;;;;8.70;7.75;;;;;;;;;;4931583;29;20055;-77
2023/04/10 02:04:52;;;;;;;11.13;8.80;;;;;;;;;;4961584;28;20046;-77
2023/04/10 02:07:25;;;;;;;10.45;9.23;;;;;;;;;;4955460;28;20082;-78
2023/04/10 02:09:58;;;;;;;13.48;9.40;;;;;;;;;;4952921;28;20051;-77
2023/04/10 02:12:29;;;;;;;13.50;9.10;;;;;;;;;;4929519;29;20047;-77
2023/04/10 02:15:00;;;;;;;10.23;8.32;;;;;;;;;;4947510;28;20576;-77
2023/04/10 02:17:29;;;;;;;10.75;8.18;;;;;;;;;;4939424;29;20129;-77
2023/04/10 02:19:57;;;;;;;9.48;8.00;;;;;;;;;;4930108;29;20047;-77
2023/04/10 02:22:25;;;;;;;11.00;8.27;;;;;;;;;;4943230;29;20146;-78
2023/04/10 02:24:53;;;;;;;9.65;8.35;;;;;;;;;;4930138;29;20071;-77
2023/04/10 02:27:28;;;;;;;9.82;8.20;;;;;;;;;;4929345;29;20142;-77
2023/04/10 02:29:55;;;;;;;10.48;8.32;;;;;;;;;;4947699;28;20086;-77
2023/04/10 02:32:23;;;;;;;13.68;9.48;;;;;;;;;;4929625;29;20098;-77
2023/04/10 02:34:51;;;;;;;11.10;8.77;;;;;;;;;;4930775;29;20095;-77
2023/04/10 02:37:18;;;;;;;11.50;8.82;;;;;;;;;;4930272;29;20043;-77
2023/04/10 02:39:45;;;;;;;10.20;8.32;;;;;;;;;;4932968;29;20271;-77
2023/04/10 02:42:13;;;;;;;8.82;7.65;;;;;;;;;;4930313;29;20098;-78
2023/04/10 02:44:41;;;;;;;10.15;7.93;;;;;;;;;;4932715;29;20043;-78
2023/04/10 02:47:08;;;;;;;10.35;8.25;;;;;;;;;;4930238;29;20057;-77
2023/04/10 02:49:38;;;;;;;10.52;8.57;;;;;;;;;;4931095;29;20055;-78
2023/04/10 02:52:12;;;;;;;8.88;7.38;;;;;;;;;;4930538;29;20043;-77
2023/04/10 02:54:40;;;;;;;9.90;8.38;;;;;;;;;;4930499;29;20076;-77
2023/04/10 02:57:07;;;;;;;11.00;7.68;;;;;;;;;;4930179;29;20521;-77
2023/04/10 02:59:35;;;;;;;12.63;8.50;;;;;;;;;;4930155;29;20051;-77
2023/04/10 03:02:04;;;;;;;11.52;8.88;;;;;;;;;;4930307;29;20074;-77
2023/04/10 03:04:35;;;;;;;13.05;9.45;;;;;;;;;;4925878;29;20061;-77
2023/04/10 03:07:03;;;;;;;13.05;9.93;;;;;;;;;;4928315;29;20055;-77
2023/04/10 03:09:30;;;;;;;12.43;9.90;;;;;;;;;;4945921;28;20055;-77
2023/04/10 03:11:57;;;;;;;12.13;8.85;;;;;;;;;;4929005;29;20494;-78
2023/04/10 03:14:25;;;;;;;10.98;9.05;;;;;;;;;;4928542;29;20050;-77
2023/04/10 03:16:53;;;;;;;11.70;8.68;;;;;;;;;;4945766;29;20055;-77
2023/04/10 03:19:21;;;;;;;10.70;8.23;;;;;;;;;;4947385;28;20083;-77
2023/04/10 03:21:49;;;;;;;11.63;9.05;;;;;;;;;;4929541;29;20058;-78
2023/04/10 03:24:17;;;;;;;11.98;9.00;;;;;;;;;;4934448;29;20039;-77
2023/04/10 03:26:45;;;;;;;10.35;7.97;;;;;;;;;;4934952;29;20051;-78
2023/04/10 03:29:17;;;;;;;10.90;7.97;;;;;;;;;;4938075;28;20035;-78
2023/04/10 03:31:45;;;;;;;12.00;8.80;;;;;;;;;;4935402;29;20457;-78
2023/04/10 03:34:12;;;;;;;11.27;8.45;;;;;;;;;;4936061;28;20051;-78
2023/04/10 03:36:40;;;;;;;9.68;8.13;;;;;;;;;;4935771;29;20126;-78
2023/04/10 03:39:07;;;;;;;10.65;7.78;;;;;;;;;;4949801;28;20055;-78
2023/04/10 03:41:35;;;;;;;7.82;6.50;;;;;;;;;;4933177;29;20058;-78
2023/04/10 03:44:02;;;;;;;11.45;7.57;;;;;;;;;;4934360;28;20090;-78
2023/04/10 03:46:30;;;;;;;10.00;7.70;;;;;;;;;;4935111;29;20176;-78
2023/04/10 03:48:58;;;;;;;10.93;7.78;;;;;;;;;;4936023;28;20053;-78
2023/04/10 03:51:26;;;;;;;11.85;8.23;;;;;;;;;;4935382;29;20209;-78
2023/04/10 03:53:54;;;;;;;9.02;7.28;;;;;;;;;;4933767;29;20395;-78
2023/04/10 03:56:22;;;;;;;9.02;8.07;;;;;;;;;;4936265;29;20051;-77
2023/04/10 03:58:50;;;;;;;10.55;7.80;;;;;;;;;;4935606;29;20067;-78
2023/04/10 04:01:18;;;;;;;11.10;7.88;;;;;;;;;;4934458;29;20397;-78
2023/04/10 04:04:03;;;;;;;10.70;7.93;;;;;;;;;;4934305;28;20066;-78
2023/04/10 04:06:51;;;;;;;9.27;7.55;;;;;;;;;;4948258;28;20051;-77
2023/04/10 04:09:37;;;;;;;9.40;7.18;;;;;;;;;;4947749;28;20058;-78
2023/04/10 04:12:39;;;;;;;;;;;;;;;;;;4934073;29;20051;-78
2023/04/10 04:15:19;;;;;;;9.77;7.78;;;;;;;;;;4934683;29;20451;-78
2023/04/10 04:17:54;;;;;;;10.27;7.63;;;;;;;;;;4952272;29;20066;-77
2023/04/10 04:20:36;;;;;;;10.70;8.00;;;;;;;;;;4942467;28;20278;-78
2023/04/10 04:23:18;;;;;;;8.73;7.07;;;;;;;;;;4938621;28;20094;-77
2023/04/10 04:26:12;;;;;;;9.63;7.55;;;;;;;;;;4949086;28;20518;-77
2023/04/10 04:28:58;;;;;;;11.05;7.88;;;;;;;;;;4949796;29;20227;-77
2023/04/10 04:31:44;;;;;;;9.80;7.90;;;;;;;;;;4948341;29;20043;-78
2023/04/10 04:34:34;;;;;;;9.10;7.45;;;;;;;;;;4914118;28;20043;-78
2023/04/10 04:37:24;;;;;;;10.57;8.43;;;;;;;;;;4946181;29;20110;-77
2023/04/10 04:40:16;;;;;;;10.35;7.75;;;;;;;;;;4934477;29;20039;-77
2023/04/10 04:43:16;;;;;;;9.88;7.93;;;;;;;;;;4893230;29;20055;-77
2023/04/10 04:46:06;;;;;;;9.00;8.02;;;;;;;;;;4914614;29;20055;-77
2023/04/10 04:48:52;;;;;;;10.77;8.00;;;;;;;;;;4947529;29;20054;-78
2023/04/10 04:51:26;;;;;;;11.18;7.93;;;;;;;;;;4932321;29;20059;-78
2023/04/10 04:54:04;;;;;;;10.57;7.97;;;;;;;;;;4945345;29;20170;-78
2023/04/10 04:56:40;;;;;;;11.05;7.78;;;;;;;;;;4947318;28;20051;-78
2023/04/10 04:59:19;;;;;;;8.88;7.07;;;;;;;;;;4946672;29;20062;-78
2023/04/10 05:01:55;;;;;;;12.32;9.00;;;;;;;;;;4928600;29;20078;-78
2023/04/10 05:04:33;;;;;;;10.68;8.50;;;;;;;;;;4930215;28;20184;-77
2023/04/10 05:07:15;;;;;;;10.57;8.93;;;;;;;;;;4930654;29;20126;-77
2023/04/10 05:10:01;;;;;;;12.63;8.30;;;;;;;;;;4950828;28;20041;-77
2023/04/10 05:13:00;;;;;;;16.13;9.55;;;;;;;;;;4944485;29;20051;-78
2023/04/10 05:15:38;;;;;;;10.63;8.80;;;;;;;;;;4946900;28;20055;-77
2023/04/10 05:18:31;;;;;;;11.45;8.48;;;;;;;;;;4947763;29;20051;-77
2023/04/10 05:21:19;;;;;;;11.05;8.90;;;;;;;;;;4948039;28;20077;-77
2023/04/10 05:24:03;;;;;;;13.38;9.55;;;;;;;;;;4931651;29;20055;-77
2023/04/10 05:26:41;;;;;;;16.70;11.05;;;;;;;;;;4947169;28;20126;-77
2023/04/10 05:29:27;;;;;;;15.38;10.05;;;;;;;;;;4946562;29;20145;-78
2023/04/10 05:32:10;;;;;;;15.70;10.18;;;;;;;;;;4927405;29;20050;-77
2023/04/10 05:35:00;;;;;;;12.95;9.93;;;;;;;;;;4929143;28;20129;-77
2023/04/10 05:37:43;;;;;;;15.85;11.55;;;;;;;;;;4925968;28;20455;-77
2023/04/10 05:40:37;;;;;;;15.35;11.32;;;;;;;;;;4938993;28;20641;-77
2023/04/10 05:43:28;;;;;;;13.85;10.25;;;;;;;;;;4946995;28;20051;-77
2023/04/10 05:46:18;;;;;;;17.67;11.88;;;;;;;;;;4916176;29;20497;-77
2023/04/10 05:49:09;;;;;;;19.02;13.15;;;;;;;;;;4941656;29;20062;-77
2023/04/10 05:51:52;;;;;;;17.63;12.57;;;;;;;;;;4928733;29;20059;-77
2023/04/10 05:54:37;;;;;;;14.85;11.07;;;;;;;;;;4947379;29;20074;-77
2023/04/10 05:57:10;;;;;;;20.58;11.95;;;;;;;;;;4946668;28;20047;-78
2023/04/10 05:59:43;;;;;;;19.55;11.93;;;;;;;;;;4947069;29;20819;-77
2023/04/10 06:02:26;;;;;;;17.17;11.52;;;;;;;;;;4944905;29;20079;-77
2023/04/10 06:04:54;;;;;;;16.35;11.70;;;;;;;;;;4926496;28;20051;-77
2023/04/10 06:07:22;;;;;;;16.25;11.57;;;;;;;;;;4924699;29;20046;-77
2023/04/10 06:09:49;;;;;;;15.18;11.45;;;;;;;;;;4928709;29;20047;-77
2023/04/10 06:12:16;;;;;;;17.50;11.77;;;;;;;;;;4923783;29;20048;-78
2023/04/10 06:14:44;;;;;;;15.32;11.93;;;;;;;;;;4925143;29;20043;-77
2023/04/10 06:17:11;;;;;;;13.57;11.63;;;;;;;;;;4926367;29;20039;-77
2023/04/10 06:19:39;;;;;;;17.05;12.18;;;;;;;;;;4944950;29;20054;-77
2023/04/10 06:22:09;;;;;;;16.95;12.77;;;;;;;;;;4922296;29;20138;-77
2023/04/10 06:24:37;;;;;;;15.15;11.30;;;;;;;;;;4922373;29;20102;-77
2023/04/10 06:27:05;;;;;;;19.33;13.10;;;;;;;;;;4936552;28;20051;-77
2023/04/10 06:29:32;;;;;;;17.85;12.88;;;;;;;;;;4928435;29;20051;-77
2023/04/10 06:32:00;;;;;;;20.70;14.15;;;;;;;;;;4926002;29;20416;-77
2023/04/10 06:34:30;;;;;;;15.93;12.63;;;;;;;;;;4922981;29;20517;-77
2023/04/10 06:37:02;;;;;;;;;;;;;;;;;;4919582;29;20201;-78
2023/04/10 06:39:29;;;;;;;15.98;11.95;;;;;;;;;;4926556;29;19926;-77
2023/04/10 06:41:57;;;;;;;15.65;13.07;;;;;;;;;;4944313;28;20051;-78
2023/04/10 06:44:36;;;;;;;25.25;13.23;;;;;;;;;;4920340;29;20059;-77
2023/04/10 06:47:05;;;;;;;15.52;12.75;;;;;;;;;;4937823;28;20054;-77
2023/04/10 06:49:33;;;;;;;13.43;11.30;;;;;;;;;;4939602;29;20047;-78
2023/04/10 06:52:01;;;;;;;16.25;11.95;;;;;;;;;;4943397;28;20051;-78
2023/04/10 06:54:29;;;;;;;15.63;12.43;;;;;;;;;;4940150;29;20414;-77
2023/04/10 06:56:57;;;;;;;16.55;12.52;;;;;;;;;;4939393;28;20054;-78
2023/04/10 06:59:25;;;;;;;18.13;13.32;;;;;;;;;;4943238;29;20421;-78
2023/04/10 07:01:52;;;;;;;16.17;12.18;;;;;;;;;;4935703;28;20529;-78
2023/04/10 07:04:22;;;;;;;16.63;12.77;;;;;;;;;;4937058;29;20054;-78
2023/04/10 07:07:14;;;;;;;15.03;12.33;;;;;;;;;;4934987;28;20639;-79
2023/04/10 07:09:42;;;;;;;17.80;12.88;;;;;;;;;;4941543;29;20051;-77
2023/04/10 07:12:10;;;;;;;17.13;13.35;;;;;;;;;;4940975;28;20054;-78
2023/04/10 07:14:41;;;;;;;17.17;13.45;;;;;;;;;;4937303;29;20130;-79
2023/04/10 07:17:12;;;;;;;19.08;13.90;;;;;;;;;;4939449;28;20130;-78
2023/04/10 07:19:40;;;;;;;16.50;13.43;;;;;;;;;;4937682;29;20062;-79
2023/04/10 07:22:14;;;;;;;16.48;12.85;;;;;;;;;;4940227;29;20069;-78
2023/04/10 07:24:43;;;;;;;16.95;12.88;;;;;;;;;;4941205;29;20061;-78
2023/04/10 07:27:31;;;;;;;16.30;13.00;;;;;;;;;;4923945;29;20127;-78
2023/04/10 07:30:01;;;;;;;17.27;13.90;;;;;;;;;;4923989;29;20099;-78
2023/04/10 07:32:28;;;;;;;15.70;13.43;;;;;;;;;;4940724;29;20055;-78
2023/04/10 07:34:56;;;;;;;18.10;12.73;;;;;;;;;;4941351;29;20563;-78
2023/04/10 07:37:23;;;;;;;15.88;12.43;;;;;;;;;;4934769;28;20074;-78
2023/04/10 07:39:51;;;;;;;16.27;11.95;;;;;;;;;;4938390;29;20247;-78
2023/04/10 07:42:18;;;;;;;23.67;18.30;;;;;;;;;;4934336;29;20066;-78
2023/04/10 07:44:45;;;;;;;15.32;12.40;;;;;;;;;;4937652;29;20502;-78
2023/04/10 07:47:13;;;;;;;16.02;12.40;;;;;;;;;;4932782;29;20055;-79
2023/04/10 07:49:40;;;;;;;14.45;11.90;;;;;;;;;;4943234;29;20048;-79
2023/04/10 07:52:08;;;;;;;13.48;11.23;;;;;;;;;;4937608;29;20502;-79
2023/04/10 07:54:35;;;;;;;16.65;11.98;;;;;;;;;;4944110;29;20134;-79
2023/04/10 07:57:02;;;;;;;11.93;10.52;;;;;;;;;;4934938;29;20057;-78
2023/04/10 07:59:30;;;;;;;12.45;10.48;;;;;;;;;;4939677;29;20150;-77
2023/04/10 08:01:57;;;;;;;13.05;11.60;;;;;;;;;;4941601;29;20425;-77
2023/04/10 08:04:30;;;;;;;14.27;11.60;;;;;;;;;;4937652;29;20047;-79
2023/04/10 08:06:58;;;;;;;15.85;11.07;;;;;;;;;;4939628;29;20047;-77
2023/04/10 08:09:25;;;;;;;12.10;10.73;;;;;;;;;;4934575;28;20054;-78
2023/04/10 08:11:53;;;;;;;14.30;11.15;;;;;;;;;;4940699;29;20427;-78
2023/04/10 08:14:20;;;;;;;11.55;9.88;;;;;;;;;;4935263;29;20058;-77
2023/04/10 08:16:52;;;;;;;12.48;11.18;;;;;;;;;;4939913;29;20051;-78
2023/04/10 08:19:19;;;;;;;13.00;11.60;;;;;;;;;;4944441;29;20564;-78
2023/04/10 08:21:47;;;;;;;16.20;12.40;;;;;;;;;;4941215;29;20043;-78
2023/04/10 08:24:18;;;;;;;13.65;11.27;;;;;;;;;;4942315;29;20047;-78
2023/04/10 08:26:45;;;;;;;13.07;11.68;;;;;;;;;;4942104;29;20142;-78
2023/04/10 08:29:13;;;;;;;21.17;15.93;;;;;;;;;;4940990;29;20134;-77
2023/04/10 08:31:42;;;;;;;14.18;11.35;;;;;;;;;;4937814;29;20441;-78
2023/04/10 08:34:10;;;;;;;13.43;11.20;;;;;;;;;;4939468;29;20330;-78
2023/04/10 08:36:37;;;;;;;11.57;10.38;;;;;;;;;;4943949;29;20050;-77
2023/04/10 08:39:05;;;;;;;12.77;11.35;;;;;;;;;;4941692;29;20051;-77
2023/04/10 08:41:32;;;;;;;13.23;11.57;;;;;;;;;;4940095;29;20054;-79
2023/04/10 08:44:00;;;;;;;13.90;12.35;;;;;;;;;;4912190;29;20500;-79
2023/04/10 08:46:28;;;;;;;15.07;12.35;;;;;;;;;;4927917;29;20761;-78
2023/04/10 08:49:05;;;;;;;13.23;11.73;;;;;;;;;;4942670;29;20043;-78
2023/04/10 08:51:37;;;;;;;15.00;12.32;;;;;;;;;;4945050;29;20412;-78
2023/04/10 08:54:10;;;;;;;14.35;11.20;;;;;;;;;;4943007;29;20055;-78
2023/04/10 08:56:39;;;;;;;13.73;11.65;;;;;;;;;;4927934;29;20110;-78
2023/04/10 08:59:07;;;;;;;15.13;12.60;;;;;;;;;;4942145;29;20118;-78
2023/04/10 09:01:35;;;;;;;15.27;12.45;;;;;;;;;;4921120;29;20624;-79
2023/04/10 09:04:02;;;;;;;14.20;11.95;;;;;;;;;;4943251;28;20104;-78
2023/04/10 09:06:30;;;;;;;14.20;12.68;;;;;;;;;;4944217;28;20047;-78
2023/04/10 09:08:58;;;;;;;14.30;12.20;;;;;;;;;;4938220;28;20129;-78
2023/04/10 09:11:45;;;;;;;14.23;11.95;;;;;;;;;;4943567;28;20123;-78
2023/04/10 09:14:26;;;;;;;15.02;12.93;;;;;;;;;;4947039;28;20050;-77
2023/04/10 09:16:53;;;;;;;13.25;11.57;;;;;;;;;;4944533;28;20203;-78
2023/04/10 09:19:31;;;;;;;13.88;12.05;;;;;;;;;;4940767;28;20059;-77
2023/04/10 09:22:02;;;;;;;13.25;11.95;;;;;;;;;;4938235;28;20047;-77
2023/04/10 09:24:40;;;;;;;12.88;11.52;;;;;;;;;;4939398;23;20502;-78
2023/04/10 09:27:08;;;;;;;12.95;10.82;;;;;;;;;;4940909;28;20059;-78
2023/04/10 09:29:42;;;;;;;13.45;12.05;;;;;;;;;;4943672;28;20043;-78
2023/04/10 09:32:11;;;;;;;13.38;11.85;;;;;;;;;;4939290;28;20461;-79
2023/04/10 09:34:52;;;;;;;12.65;11.30;;;;;;;;;;4937818;29;20124;-78
2023/04/10 09:37:21;;;;;;;11.67;10.37;;;;;;;;;;4935132;29;20055;-78
2023/04/10 09:39:49;;;;;;;12.52;10.52;;;;;;;;;;4933855;29;20060;-78
2023/04/10 09:42:28;;;;;;;14.10;11.95;;;;;;;;;;4906666;29;20075;-78
2023/04/10 09:44:55;;;;;;;14.55;11.88;;;;;;;;;;4920452;29;20059;-77
2023/04/10 09:47:26;;;;;;;13.07;11.70;;;;;;;;;;4918762;29;20525;-78
2023/04/10 09:50:01;;;;;;;13.00;11.70;;;;;;;;;;4922476;29;20074;-78
2023/04/10 09:52:31;;;;;;;12.02;10.82;;;;;;;;;;4902713;29;20127;-78
2023/04/10 09:55:03;;;;;;;11.93;10.63;;;;;;;;;;4925268;29;20773;-77
2023/04/10 09:57:31;;;;;;;14.38;12.15;;;;;;;;;;4928285;29;20082;-77
2023/04/10 10:00:04;;;;;;;14.20;11.37;;;;;;;;;;4926088;29;20051;-78
2023/04/10 10:02:37;;;;;;;21.02;17.15;;;;;;;;;;4925300;29;20411;-77
2023/04/10 10:05:06;;;;;;;13.18;11.25;;;;;;;;;;4927983;29;20051;-78
2023/04/10 10:07:34;;;;;;;13.40;11.20;;;;;;;;;;4926626;29;20426;-78
2023/04/10 10:10:02;;;;;;;12.18;9.80;;;;;;;;;;4921199;29;20107;-77
2023/04/10 10:12:45;;;;;;;11.88;10.65;;;;;;;;;;4920574;29;20478;-78
2023/04/10 10:15:13;;;;;;;14.20;10.90;;;;;;;;;;4926565;29;20055;-79
2023/04/10 10:17:46;;;;;;;12.40;10.70;;;;;;;;;;4925068;29;20569;-78
2023/04/10 10:20:16;;;;;;;10.82;9.48;;;;;;;;;;4927267;29;20056;-78
2023/04/10 10:22:44;;;;;;;11.10;9.82;;;;;;;;;;4928568;29;20082;-78
2023/04/10 10:25:14;;;;;;;11.93;10.27;;;;;;;;;;4928887;29;20047;-79
2023/04/10 10:27:41;;;;;;;11.60;10.30;;;;;;;;;;4924170;29;20044;-79
2023/04/10 10:30:11;;;;;;;11.40;9.77;;;;;;;;;;4924763;29;20422;-76
2023/04/10 10:32:55;;;;;;;11.07;8.82;;;;;;;;;;4923829;28;20043;-78
2023/04/10 10:35:24;;;;;;;10.05;8.57;;;;;;;;;;4921765;29;20071;-79
2023/04/10 10:37:56;;;;;;;8.82;7.90;;;;;;;;;;4927121;29;20142;-79
2023/04/10 10:40:29;;;;;;;7.97;6.95;;;;;;;;;;4924196;29;20372;-79
2023/04/10 10:43:05;;;;;;;6.43;5.82;;;;;;;;;;4925926;29;20510;-77
2023/04/10 10:45:49;;;;;;;6.53;5.93;;;;;;;;;;4924859;29;20054;-78
2023/04/10 10:48:17;;;;;;;7.25;6.40;;;;;;;;;;4931033;29;20470;-78
2023/04/10 10:50:57;;;;;;;6.70;5.78;;;;;;;;;;4925566;29;20122;-79
2023/04/10 10:53:44;;;;;;;7.60;6.57;;;;;;;;;;4932185;29;20454;-78
2023/04/10 10:56:35;;;;;;;8.05;7.22;;;;;;;;;;4917970;29;20070;-78
2023/04/10 10:59:03;;;;;;;7.75;6.95;;;;;;;;;;4925812;29;20078;-78
2023/04/10 11:01:31;;;;;;;9.85;6.65;;;;;;;;;;4925299;29;20144;-78
2023/04/10 11:04:23;;;;;;;9.05;7.78;;;;;;;;;;4925782;29;20126;-78
2023/04/10 11:06:51;;;;;;;11.27;10.25;;;;;;;;;;4922995;29;20047;-80
2023/04/10 11:09:37;;;;;;;8.95;8.00;;;;;;;;;;4925590;29;20036;-78
2023/04/10 11:12:07;;;;;;;13.48;9.27;;;;;;;;;;4928029;29;20052;-78
2023/04/10 11:14:35;;;;;;;8.65;7.82;;;;;;;;;;4923615;29;20048;-78
2023/04/10 11:17:03;;;;;;;8.30;7.20;;;;;;;;;;4923712;29;20052;-77
2023/04/10 11:19:51;;;;;;;8.88;7.97;;;;;;;;;;4903066;29;20491;-78
2023/04/10 11:22:19;;;;;;;7.88;7.07;;;;;;;;;;4900109;29;20529;-78
2023/04/10 11:24:53;;;;;;;12.00;10.90;;;;;;;;;;4922145;29;20051;-78
2023/04/10 11:27:39;;;;;;;9.05;8.15;;;;;;;;;;4923310;29;20079;-79
2023/04/10 11:30:29;;;;;;;9.38;8.38;;;;;;;;;;4913385;29;20044;-78
2023/04/10 11:32:57;;;;;;;8.65;7.85;;;;;;;;;;4913477;29;20038;-78
2023/04/10 11:35:26;;;;;;;8.45;7.65;;;;;;;;;;4918010;29;20097;-79
2023/04/10 11:38:07;;;;;;;7.25;6.55;;;;;;;;;;4925571;29;20126;-78
2023/04/10 11:40:35;;;;;;;6.38;5.78;;;;;;;;;;4927161;29;20067;-79
2023/04/10 11:43:12;;;;;;;6.30;5.75;;;;;;;;;;4927213;29;20134;-80
2023/04/10 11:45:40;;;;;;;7.97;7.03;;;;;;;;;;4931079;29;20052;-79
2023/04/10 11:48:08;;;;;;;60.40;35.70;;;;;;;;;;4929736;29;20040;-79
2023/04/10 11:50:35;;;;;;;12.30;11.00;;;;;;;;;;4928756;29;20044;-78
2023/04/10 11:53:16;;;;;;;8.63;7.22;;;;;;;;;;4927692;29;20067;-78
2023/04/10 11:55:49;;;;;;;7.57;6.75;;;;;;;;;;4925642;29;20054;-78
2023/04/10 11:58:26;;;;;;;8.70;7.80;;;;;;;;;;4930587;29;20131;-78
2023/04/10 12:00:57;;;;;;;6.63;5.93;;;;;;;;;;4929731;29;20140;-79
2023/04/10 12:03:31;;;;;;;81.60;68.63;;;;;;;;;;4928469;29;20074;-80
2023/04/10 12:05:59;;;;;;;12.50;11.45;;;;;;;;;;4928828;29;20066;-79
2023/04/10 12:08:37;;;;;;;16.83;15.45;;;;;;;;;;4929499;29;20585;-78
2023/04/10 12:11:04;;;;;;;6.20;5.60;;;;;;;;;;4927223;29;20040;-77
2023/04/10 12:13:32;;;;;;;7.25;6.40;;;;;;;;;;4930394;29;20470;-78
2023/04/10 12:16:09;;;;;;;6.90;5.35;;;;;;;;;;4928235;29;20127;-78
2023/04/10 12:18:37;;;;;;;5.22;4.72;;;;;;;;;;4928310;29;20052;-78
2023/04/10 12:21:05;;;;;;;89.18;80.20;;;;;;;;;;4929503;29;20118;-78
2023/04/10 12:23:36;;;;;;;102.28;77.57;;;;;;;;;;4930116;29;20044;-78
2023/04/10 12:26:10;;;;;;;4.90;4.50;;;;;;;;;;4925979;29;20039;-77
2023/04/10 12:28:39;;;;;;;6.15;4.80;;;;;;;;;;4913101;29;20390;-78
2023/04/10 12:31:06;;;;;;;5.20;4.70;;;;;;;;;;4924043;29;20060;-78
2023/04/10 12:33:36;;;;;;;13.23;12.18;;;;;;;;;;4930093;29;20048;-77
2023/04/10 12:36:04;;;;;;;28.60;20.73;;;;;;;;;;4930032;29;20091;-78
2023/04/10 12:38:43;;;;;;;5.13;4.72;;;;;;;;;;4925653;29;20191;-78
2023/04/10 12:41:11;;;;;;;5.38;4.93;;;;;;;;;;4922282;29;20056;-78
2023/04/10 12:43:40;;;;;;;35.35;31.70;;;;;;;;;;4917890;29;20047;-79
2023/04/10 12:46:09;;;;;;;5.40;4.43;;;;;;;;;;4911323;29;20048;-78
2023/04/10 12:48:36;;;;;;;4.78;4.38;;;;;;;;;;4927495;29;20040;-79
2023/04/10 12:51:04;;;;;;;328.00;248.90;;;;;;;;;;4905453;29;20222;-77
2023/04/10 12:53:42;;;;;;;374.55;269.50;;;;;;;;;;4922306;29;20043;-80
2023/04/10 12:56:13;;;;;;;6.22;5.63;;;;;;;;;;4927220;29;20055;-78
2023/04/10 12:58:41;;;;;;;18.10;16.45;;;;;;;;;;4919767;29;20063;-78
2023/04/10 13:01:16;;;;;;;7.85;7.13;;;;;;;;;;4918315;29;20146;-79
2023/04/10 13:03:47;;;;;;;33.83;30.73;;;;;;;;;;4919426;29;20055;-79
2023/04/10 13:06:15;;;;;;;4.93;4.53;;;;;;;;;;4910971;29;20719;-80
2023/04/10 13:08:42;;;;;;;32.95;30.38;;;;;;;;;;4910347;29;20037;-79
2023/04/10 13:11:10;;;;;;;9.05;8.25;;;;;;;;;;4921015;29;20048;-78
2023/04/10 13:13:37;;;;;;;4.70;4.30;;;;;;;;;;4921282;29;20632;-78
2023/04/10 13:16:05;;;;;;;15.68;14.38;;;;;;;;;;4921800;29;20047;-79
2023/04/10 13:18:34;;;;;;;6.32;5.75;;;;;;;;;;4919696;29;20055;-78
2023/04/10 13:21:01;;;;;;;4.90;4.20;;;;;;;;;;4918789;29;20058;-77
2023/04/10 13:23:31;;;;;;;5.00;4.60;;;;;;;;;;4920562;29;20099;-78
2023/04/10 13:26:02;;;;;;;88.68;80.07;;;;;;;;;;4915476;29;20079;-79
2023/04/10 13:28:30;;;;;;;17.17;15.52;;;;;;;;;;4921988;29;20059;-81
2023/04/10 13:30:57;;;;;;;65.18;58.95;;;;;;;;;;4913416;29;20067;-83
2023/04/10 13:33:25;;;;;;;6.88;6.38;;;;;;;;;;4899280;29;20052;-80
2023/04/10 13:35:53;;;;;;;9.38;8.68;;;;;;;;;;4913865;29;20055;-79
2023/04/10 13:38:22;;;;;;;28.65;25.90;;;;;;;;;;4917209;29;20142;-79
2023/04/10 13:40:49;;;;;;;5.22;4.82;;;;;;;;;;4920717;29;20052;-78
2023/04/10 13:43:17;;;;;;;5.72;5.22;;;;;;;;;;4915986;29;20142;-78
2023/04/10 13:45:44;;;;;;;7.00;6.07;;;;;;;;;;4923510;29;20137;-78
2023/04/10 13:48:14;;;;;;;10.73;9.77;;;;;;;;;;4919350;29;20387;-78
2023/04/10 13:50:42;;;;;;;5.82;5.43;;;;;;;;;;4919748;29;20047;-79
2023/04/10 13:53:10;;;;;;;5.32;4.93;;;;;;;;;;4916835;29;20058;-80
2023/04/10 13:55:42;;;;;;;5.10;4.70;;;;;;;;;;4919198;29;20162;-78
2023/04/10 13:58:13;;;;;;;4.63;4.22;;;;;;;;;;4920625;29;20051;-79
2023/04/10 14:00:43;;;;;;;4.72;4.32;;;;;;;;;;4919381;29;20135;-78
2023/04/10 14:03:11;;;;;;;7.70;7.10;;;;;;;;;;4912764;29;20047;-76
2023/04/10 14:05:39;;;;;;;3.53;3.22;;;;;;;;;;4912857;29;20138;-78
2023/04/10 14:08:10;;;;;;;11.80;11.13;;;;;;;;;;4905114;29;20079;-78
2023/04/10 14:10:38;;;;;;;4.20;3.90;;;;;;;;;;4925067;29;20046;-78
2023/04/10 14:13:06;;;;;;;3.38;3.17;;;;;;;;;;4922120;29;20043;-78
2023/04/10 14:15:33;;;;;;;300.98;268.05;;;;;;;;;;4921199;29;20099;-80
2023/04/10 14:18:01;;;;;;;8.40;7.90;;;;;;;;;;4921610;29;20058;-78
2023/04/10 14:20:28;;;;;;;21.83;20.42;;;;;;;;;;4920633;29;20782;-78
2023/04/10 14:22:56;;;;;;;7.72;7.22;;;;;;;;;;4912543;29;20056;-77
2023/04/10 14:25:23;;;;;;;9.32;8.57;;;;;;;;;;4926052;29;20170;-78
2023/04/10 14:27:50;;;;;;;3.42;3.22;;;;;;;;;;4924752;29;20075;-78
2023/04/10 14:30:18;;;;;;;4.47;4.18;;;;;;;;;;4920182;29;20118;-79
2023/04/10 14:32:45;;;;;;;13.40;12.35;;;;;;;;;;4916895;29;20494;-81
2023/04/10 14:35:13;;;;;;;21.58;17.65;;;;;;;;;;4918563;29;20503;-78
2023/04/10 14:37:41;;;;;;;40.80;36.78;;;;;;;;;;4916873;29;20130;-79
2023/04/10 14:40:09;;;;;;;9.05;8.40;;;;;;;;;;4920274;29;20051;-79
2023/04/10 14:42:36;;;;;;;6.93;6.47;;;;;;;;;;4916741;29;20048;-79
2023/04/10 14:45:05;;;;;;;5.68;5.20;;;;;;;;;;4922331;29;20051;-78
2023/04/10 14:47:32;;;;;;;8.52;8.02;;;;;;;;;;4917601;29;20051;-80
2023/04/10 14:49:59;;;;;;;11.30;10.52;;;;;;;;;;4912750;29;20059;-79
2023/04/10 14:52:27;;;;;;;281.27;223.80;;;;;;;;;;4916751;29;20131;-77
2023/04/10 14:54:54;;;;;;;17.55;16.15;;;;;;;;;;4913457;29;20051;-78